WetterOnline ( https://www.wetteronline.de )

Wetter aktuell Waiblingen

Aktuelles Wetter: Schnarrenberg/Stuttgart (315m)

6-stündlich | Neueste Meldungen
Ortszeit Temperatur Wetter
Di, 06.12. 19:00 3.2° C bewölkt
Di, 06.12. 13:00 3.3° C Sprühregen
Di, 06.12. 7:00 2.9° C bedeckt
Di, 06.12. 1:00 3.7° C bedeckt
Mo, 05.12. 19:00 3.8° C bewölkt
Mo, 05.12. 13:00 5.1° C bewölkt
Mo, 05.12. 7:00 2.7° C bedeckt
Mo, 05.12. 1:00 2.1° C bedeckt
Ortszeit Temperatur Wetter
Mi, 07.12. 0:30 2.8° C bedeckt
Mi, 07.12. 0:20 2.8° C bedeckt
Mi, 07.12. 0:10 2.9° C bedeckt
Mi, 07.12. 0:00 2.9° C bedeckt
Di, 06.12. 23:50 2.9° C bedeckt
Di, 06.12. 23:40 2.9° C bedeckt
Di, 06.12. 23:30 2.8° C bedeckt
Di, 06.12. 23:00 2.9° C bedeckt
Di, 06.12. 22:30 3.1° C bedeckt
Di, 06.12. 22:00 3.1° C bedeckt
Di, 06.12. 21:30 3.0° C bedeckt
Ortszeit Relative Feuchte Sichtweite
Di, 06.12. 19:00 87% 40 km
Di, 06.12. 13:00 93% 7 km
Di, 06.12. 7:00 94% 18 km
Di, 06.12. 1:00 90% 26 km
Mo, 05.12. 19:00 93% 16 km
Mo, 05.12. 13:00 83% 26 km
Mo, 05.12. 7:00 89% 18 km
Mo, 05.12. 1:00 88% 19 km
Ortszeit Relative Feuchte Sichtweite
Mi, 07.12. 0:30 92% 23 km
Mi, 07.12. 0:20 92% -
Mi, 07.12. 0:10 92% -
Mi, 07.12. 0:00 93% 23 km
Di, 06.12. 23:50 93% -
Di, 06.12. 23:40 92% -
Di, 06.12. 23:30 92% 25 km
Di, 06.12. 23:00 90% 22 km
Di, 06.12. 22:30 89% 35 km
Di, 06.12. 22:00 88% 35 km
Di, 06.12. 21:30 89% 30 km
Ortszeit Niederschlagsmenge Niederschlagsart
Di, 06.12. 19:00 0.1 l/m2 in 12 Std. Sprühregen
Di, 06.12. 13:00 0.1 l/m2 in 6 Std. Regen
Di, 06.12. 7:00 0.1 l/m2 in 12 Std. -
Di, 06.12. 1:00 0.1 l/m2 in 6 Std. Regen
Mo, 05.12. 19:00 0.1 l/m2 in 12 Std. -
Mo, 05.12. 13:00 0.1 l/m2 in 6 Std. Regen
Mo, 05.12. 7:00 0.0 l/m2 in 12 Std. -
Mo, 05.12. 1:00 0.0 l/m2 in 6 Std. -
Ortszeit Niederschlagsmenge Niederschlagsart
Mi, 07.12. 0:30 0.0 l/m2 in 30 Min -
Mi, 07.12. 0:20 keine Meldung -
Mi, 07.12. 0:10 keine Meldung -
Mi, 07.12. 0:00 <0.05 l/m2 in 1 Std. Sprühregen
Di, 06.12. 23:50 keine Meldung -
Di, 06.12. 23:40 keine Meldung -
Di, 06.12. 23:30 <0.05 l/m2 in 30 Min Schnee
Di, 06.12. 23:00 0.0 l/m2 in 1 Std. -
Di, 06.12. 22:30 0.0 l/m2 in 30 Min -
Di, 06.12. 22:00 0.0 l/m2 in 1 Std. -
Di, 06.12. 21:30 0.0 l/m2 in 30 Min -
Ortszeit Stärke Spitze Richtung
km/h Bft. km/h Grad Sektor
Di, 06.12. 19:00 7 2 25 300° NW
Di, 06.12. 13:00 9 2 19 300° NW
Di, 06.12. 7:00 4 1 7 180° S
Di, 06.12. 1:00 4 1 11 270° W
Mo, 05.12. 19:00 0 0 11 - -
Mo, 05.12. 13:00 4 1 14 360° N
Mo, 05.12. 7:00 7 2 22 170° S
Mo, 05.12. 1:00 9 2 17 220° SW
Ortszeit Stärke Spitze Richtung
km/h Bft. km/h Grad Sektor
Mi, 07.12. 0:30 13 3 17 300° NW
Mi, 07.12. 0:20 13 3 - 300° NW
Mi, 07.12. 0:10 11 2 - 300° NW
Mi, 07.12. 0:00 11 2 18 300° NW
Di, 06.12. 23:50 11 2 - 300° NW
Di, 06.12. 23:40 11 2 - 300° NW
Di, 06.12. 23:30 9 2 19 290° W
Di, 06.12. 23:00 11 2 18 300° NW
Di, 06.12. 22:30 9 2 15 290° W
Di, 06.12. 22:00 9 2 13 300° NW
Di, 06.12. 21:30 7 2 14 300° NW
Ortszeit Untergrenze Bedeckung Gattung
total tief tief mittel hoch
Di, 06.12. 19:00 450 m 7/8 7/8 - - -
Di, 06.12. 13:00 180 m 8/8 8/8 - - -
Di, 06.12. 7:00 690 m 8/8 8/8 - - -
Di, 06.12. 1:00 1200 m 8/8 8/8 - - -
Mo, 05.12. 19:00 1260 m 7/8 7/8 - - -
Mo, 05.12. 13:00 1020 m 7/8 7/8 - - -
Mo, 05.12. 7:00 270 m 8/8 8/8 - - -
Mo, 05.12. 1:00 330 m 8/8 8/8 - - -
Ortszeit Bedeckungsgrad in Achtel und Wolkenuntergrenze
Mi, 07.12. 0:30 2(210m) 8(810m) 8(1500m)
Mi, 07.12. 0:20 2(210m) 8(810m) 8(1500m)
Mi, 07.12. 0:10 8
Mi, 07.12. 0:00 4(150m) 7(960m) 8(1500m)
Di, 06.12. 23:50 4(150m) 7(960m) 8(1500m)
Di, 06.12. 23:40 8
Di, 06.12. 23:30 1(180m) 4(600m) 8(1500m)
Di, 06.12. 23:00 2(240m) 7(960m) 8(1500m)
Di, 06.12. 22:30 2(480m) 7(810m) 8(1500m)
Di, 06.12. 22:00 5(510m) 8(810m) 8(1500m)
Di, 06.12. 21:30 8(630m)
Ortszeit Luftdruck NN (hPa) Tendenz (hPa in 3 Std.)
Di, 06.12. 19:00 1019 0,0
Di, 06.12. 13:00 1019 - 0,2
Di, 06.12. 7:00 1019 - 0,8
Di, 06.12. 1:00 1021 - 0,4
Mo, 05.12. 19:00 1021 + 0,7
Mo, 05.12. 13:00 1020 + 0,2
Mo, 05.12. 7:00 1018 + 0,9
Mo, 05.12. 1:00 1016 + 1,3
Ortszeit Luftdruck NN (hPa) Tendenz (hPa in 3 Std.)
Mi, 07.12. 0:30 1019 + 0,1
Mi, 07.12. 0:20 1019 keine Meldung
Mi, 07.12. 0:10 1019 keine Meldung
Mi, 07.12. 0:00 1019 0,0
Di, 06.12. 23:50 1019 keine Meldung
Di, 06.12. 23:40 1019 keine Meldung
Di, 06.12. 23:30 1019 0,0
Di, 06.12. 23:00 1019 - 0,1
Di, 06.12. 22:30 1019 0,0
Di, 06.12. 22:00 1019 + 0,1
Di, 06.12. 21:30 1019 - 0,1
Ortszeit Schneehöhe (cm)
Di, 06.12. 19:00 0
Di, 06.12. 13:00 0
Di, 06.12. 7:00 0
Di, 06.12. 1:00 0
Mo, 05.12. 19:00 0
Mo, 05.12. 13:00 0
Mo, 05.12. 7:00 0
Mo, 05.12. 1:00 0
Ortszeit Schneehöhe (cm)
Mi, 07.12. 0:30 0
Mi, 07.12. 0:20 0
Mi, 07.12. 0:10 0
Mi, 07.12. 0:00 0
Di, 06.12. 23:50 0
Di, 06.12. 23:40 0
Di, 06.12. 23:30 0
Di, 06.12. 23:00 0
Di, 06.12. 22:30 0
Di, 06.12. 22:00 0
Di, 06.12. 21:30 0
Link zu dieser Seite / Seite empfehlen

Das Wetter in ...